sensor_id;sensor_type;location;lat;lon;timestamp;P1;durP1;ratioP1;P2;durP2;ratioP2
17235;SDS011;8734;59.272;17.780;2023-02-03T00:00:02;3.13;;;1.23;;
17235;SDS011;8734;59.272;17.780;2023-02-03T00:02:33;3.33;;;1.30;;
17235;SDS011;8734;59.272;17.780;2023-02-03T00:05:01;6.27;;;1.20;;
17235;SDS011;8734;59.272;17.780;2023-02-03T00:07:30;5.13;;;1.10;;
17235;SDS011;8734;59.272;17.780;2023-02-03T00:10:00;2.10;;;1.20;;
17235;SDS011;8734;59.272;17.780;2023-02-03T00:12:29;4.27;;;1.80;;
17235;SDS011;8734;59.272;17.780;2023-02-03T00:14:57;2.33;;;1.13;;
17235;SDS011;8734;59.272;17.780;2023-02-03T00:17:27;2.17;;;1.13;;
17235;SDS011;8734;59.272;17.780;2023-02-03T00:19:55;2.33;;;0.90;;
17235;SDS011;8734;59.272;17.780;2023-02-03T00:22:23;2.10;;;1.00;;
17235;SDS011;8734;59.272;17.780;2023-02-03T00:24:52;7.93;;;1.27;;
17235;SDS011;8734;59.272;17.780;2023-02-03T00:27:20;2.23;;;0.97;;
17235;SDS011;8734;59.272;17.780;2023-02-03T00:29:48;1.73;;;1.20;;
17235;SDS011;8734;59.272;17.780;2023-02-03T00:32:16;5.23;;;1.07;;
17235;SDS011;8734;59.272;17.780;2023-02-03T00:34:46;5.40;;;1.50;;
17235;SDS011;8734;59.272;17.780;2023-02-03T00:37:15;3.07;;;1.10;;
17235;SDS011;8734;59.272;17.780;2023-02-03T00:39:43;3.37;;;1.63;;
17235;SDS011;8734;59.272;17.780;2023-02-03T00:42:11;3.33;;;1.17;;
17235;SDS011;8734;59.272;17.780;2023-02-03T00:44:40;2.73;;;1.00;;
17235;SDS011;8734;59.272;17.780;2023-02-03T00:47:08;1.80;;;1.20;;
17235;SDS011;8734;59.272;17.780;2023-02-03T00:49:37;7.03;;;1.50;;
17235;SDS011;8734;59.272;17.780;2023-02-03T00:52:07;2.60;;;1.27;;
17235;SDS011;8734;59.272;17.780;2023-02-03T00:54:35;2.30;;;1.10;;
17235;SDS011;8734;59.272;17.780;2023-02-03T00:57:03;1.93;;;1.13;;
17235;SDS011;8734;59.272;17.780;2023-02-03T00:59:32;4.10;;;1.43;;
17235;SDS011;8734;59.272;17.780;2023-02-03T01:02:00;6.20;;;1.10;;
17235;SDS011;8734;59.272;17.780;2023-02-03T01:04:29;2.17;;;1.10;;
17235;SDS011;8734;59.272;17.780;2023-02-03T01:06:57;4.53;;;1.40;;
17235;SDS011;8734;59.272;17.780;2023-02-03T01:09:26;4.70;;;1.10;;
17235;SDS011;8734;59.272;17.780;2023-02-03T01:11:55;1.70;;;0.90;;
17235;SDS011;8734;59.272;17.780;2023-02-03T01:14:23;2.43;;;1.10;;
17235;SDS011;8734;59.272;17.780;2023-02-03T01:16:52;1.87;;;0.87;;
17235;SDS011;8734;59.272;17.780;2023-02-03T01:19:21;8.23;;;1.33;;
17235;SDS011;8734;59.272;17.780;2023-02-03T01:21:49;3.43;;;1.33;;
17235;SDS011;8734;59.272;17.780;2023-02-03T01:24:17;3.40;;;1.23;;
17235;SDS011;8734;59.272;17.780;2023-02-03T01:26:47;1.90;;;1.00;;
17235;SDS011;8734;59.272;17.780;2023-02-03T01:29:16;2.67;;;1.37;;
17235;SDS011;8734;59.272;17.780;2023-02-03T01:31:44;3.43;;;1.27;;
17235;SDS011;8734;59.272;17.780;2023-02-03T01:34:13;2.53;;;1.10;;
17235;SDS011;8734;59.272;17.780;2023-02-03T01:36:44;2.23;;;0.87;;
17235;SDS011;8734;59.272;17.780;2023-02-03T01:39:12;3.03;;;1.50;;
17235;SDS011;8734;59.272;17.780;2023-02-03T01:41:41;4.40;;;1.63;;
17235;SDS011;8734;59.272;17.780;2023-02-03T01:47:13;1.63;;;1.00;;
17235;SDS011;8734;59.272;17.780;2023-02-03T01:49:46;2.37;;;1.40;;
17235;SDS011;8734;59.272;17.780;2023-02-03T01:52:19;2.67;;;1.20;;
17235;SDS011;8734;59.272;17.780;2023-02-03T01:54:47;2.47;;;1.37;;
17235;SDS011;8734;59.272;17.780;2023-02-03T01:57:19;4.73;;;1.37;;
17235;SDS011;8734;59.272;17.780;2023-02-03T01:59:53;1.77;;;1.10;;
17235;SDS011;8734;59.272;17.780;2023-02-03T02:02:25;3.77;;;1.60;;
17235;SDS011;8734;59.272;17.780;2023-02-03T02:04:55;3.57;;;1.43;;
17235;SDS011;8734;59.272;17.780;2023-02-03T02:07:31;2.27;;;1.10;;
17235;SDS011;8734;59.272;17.780;2023-02-03T02:10:02;4.47;;;1.70;;
17235;SDS011;8734;59.272;17.780;2023-02-03T02:12:30;6.63;;;1.40;;
17235;SDS011;8734;59.272;17.780;2023-02-03T02:15:00;2.47;;;1.00;;
17235;SDS011;8734;59.272;17.780;2023-02-03T02:17:33;2.73;;;1.20;;
17235;SDS011;8734;59.272;17.780;2023-02-03T02:20:23;2.37;;;1.30;;
17235;SDS011;8734;59.272;17.780;2023-02-03T02:23:06;6.97;;;1.57;;
17235;SDS011;8734;59.272;17.780;2023-02-03T02:25:56;1.90;;;1.20;;
17235;SDS011;8734;59.272;17.780;2023-02-03T02:28:48;1.20;;;1.10;;
17235;SDS011;8734;59.272;17.780;2023-02-03T02:31:54;3.63;;;1.20;;
17235;SDS011;8734;59.272;17.780;2023-02-03T02:34:36;2.57;;;1.20;;
17235;SDS011;8734;59.272;17.780;2023-02-03T02:37:17;2.77;;;1.33;;
17235;SDS011;8734;59.272;17.780;2023-02-03T02:39:52;4.80;;;1.60;;
17235;SDS011;8734;59.272;17.780;2023-02-03T02:42:27;1.90;;;1.17;;
17235;SDS011;8734;59.272;17.780;2023-02-03T02:45:04;2.47;;;1.23;;
17235;SDS011;8734;59.272;17.780;2023-02-03T02:47:37;2.47;;;1.33;;
17235;SDS011;8734;59.272;17.780;2023-02-03T02:50:07;4.53;;;1.37;;
17235;SDS011;8734;59.272;17.780;2023-02-03T02:52:40;2.70;;;1.43;;
17235;SDS011;8734;59.272;17.780;2023-02-03T02:55:12;5.00;;;1.27;;
17235;SDS011;8734;59.272;17.780;2023-02-03T02:57:43;3.67;;;1.33;;
17235;SDS011;8734;59.272;17.780;2023-02-03T03:00:13;2.60;;;1.40;;
17235;SDS011;8734;59.272;17.780;2023-02-03T03:02:43;3.83;;;1.50;;
17235;SDS011;8734;59.272;17.780;2023-02-03T03:05:11;2.93;;;1.60;;
17235;SDS011;8734;59.272;17.780;2023-02-03T03:07:41;4.63;;;1.40;;
17235;SDS011;8734;59.272;17.780;2023-02-03T03:10:14;3.13;;;1.33;;
17235;SDS011;8734;59.272;17.780;2023-02-03T03:12:48;3.07;;;1.30;;
17235;SDS011;8734;59.272;17.780;2023-02-03T03:15:20;2.60;;;1.37;;
17235;SDS011;8734;59.272;17.780;2023-02-03T03:17:54;10.90;;;1.23;;
17235;SDS011;8734;59.272;17.780;2023-02-03T03:20:25;4.10;;;1.67;;
17235;SDS011;8734;59.272;17.780;2023-02-03T03:22:55;4.83;;;1.50;;
17235;SDS011;8734;59.272;17.780;2023-02-03T03:25:27;2.40;;;1.40;;
17235;SDS011;8734;59.272;17.780;2023-02-03T03:28:02;2.77;;;1.57;;
17235;SDS011;8734;59.272;17.780;2023-02-03T03:30:35;3.13;;;1.80;;
17235;SDS011;8734;59.272;17.780;2023-02-03T03:33:07;2.93;;;1.80;;
17235;SDS011;8734;59.272;17.780;2023-02-03T03:35:37;3.77;;;1.27;;
17235;SDS011;8734;59.272;17.780;2023-02-03T03:38:10;9.17;;;1.40;;
17235;SDS011;8734;59.272;17.780;2023-02-03T03:40:46;3.70;;;1.53;;
17235;SDS011;8734;59.272;17.780;2023-02-03T03:43:18;3.60;;;1.17;;
17235;SDS011;8734;59.272;17.780;2023-02-03T03:45:51;4.47;;;1.57;;
17235;SDS011;8734;59.272;17.780;2023-02-03T03:48:26;2.80;;;1.37;;
17235;SDS011;8734;59.272;17.780;2023-02-03T03:50:57;3.87;;;1.67;;
17235;SDS011;8734;59.272;17.780;2023-02-03T03:53:30;3.70;;;1.47;;
17235;SDS011;8734;59.272;17.780;2023-02-03T03:56:00;4.17;;;1.60;;
17235;SDS011;8734;59.272;17.780;2023-02-03T03:58:33;2.23;;;1.17;;
17235;SDS011;8734;59.272;17.780;2023-02-03T04:01:05;5.03;;;1.60;;
17235;SDS011;8734;59.272;17.780;2023-02-03T04:03:37;5.90;;;1.73;;
17235;SDS011;8734;59.272;17.780;2023-02-03T04:06:08;2.47;;;1.27;;
17235;SDS011;8734;59.272;17.780;2023-02-03T04:08:36;4.13;;;1.77;;
17235;SDS011;8734;59.272;17.780;2023-02-03T04:11:05;8.90;;;1.40;;
17235;SDS011;8734;59.272;17.780;2023-02-03T04:13:34;3.17;;;1.43;;
17235;SDS011;8734;59.272;17.780;2023-02-03T04:16:03;3.20;;;1.60;;
17235;SDS011;8734;59.272;17.780;2023-02-03T04:18:31;4.30;;;1.90;;
17235;SDS011;8734;59.272;17.780;2023-02-03T04:21:01;6.90;;;2.00;;
17235;SDS011;8734;59.272;17.780;2023-02-03T04:23:30;3.77;;;1.67;;
17235;SDS011;8734;59.272;17.780;2023-02-03T04:25:59;5.73;;;1.57;;
17235;SDS011;8734;59.272;17.780;2023-02-03T04:28:27;5.70;;;1.37;;
17235;SDS011;8734;59.272;17.780;2023-02-03T04:30:58;4.33;;;1.33;;
17235;SDS011;8734;59.272;17.780;2023-02-03T04:33:27;9.17;;;1.90;;
17235;SDS011;8734;59.272;17.780;2023-02-03T04:35:55;4.23;;;1.67;;
17235;SDS011;8734;59.272;17.780;2023-02-03T04:38:25;12.30;;;1.93;;
17235;SDS011;8734;59.272;17.780;2023-02-03T04:40:53;3.70;;;2.20;;
17235;SDS011;8734;59.272;17.780;2023-02-03T04:43:22;2.77;;;1.83;;
17235;SDS011;8734;59.272;17.780;2023-02-03T04:45:50;2.60;;;1.20;;
17235;SDS011;8734;59.272;17.780;2023-02-03T04:48:19;3.00;;;1.73;;
17235;SDS011;8734;59.272;17.780;2023-02-03T04:50:47;4.63;;;1.33;;
17235;SDS011;8734;59.272;17.780;2023-02-03T04:53:15;2.87;;;1.57;;
17235;SDS011;8734;59.272;17.780;2023-02-03T04:55:46;3.37;;;1.77;;
17235;SDS011;8734;59.272;17.780;2023-02-03T04:58:15;9.17;;;1.70;;
17235;SDS011;8734;59.272;17.780;2023-02-03T05:00:43;5.37;;;1.90;;
17235;SDS011;8734;59.272;17.780;2023-02-03T05:03:12;4.23;;;1.50;;
17235;SDS011;8734;59.272;17.780;2023-02-03T05:05:41;8.90;;;2.17;;
17235;SDS011;8734;59.272;17.780;2023-02-03T05:08:09;10.20;;;2.37;;
17235;SDS011;8734;59.272;17.780;2023-02-03T05:10:38;11.73;;;2.07;;
17235;SDS011;8734;59.272;17.780;2023-02-03T05:13:07;6.20;;;1.73;;
17235;SDS011;8734;59.272;17.780;2023-02-03T05:15:36;8.53;;;1.60;;
17235;SDS011;8734;59.272;17.780;2023-02-03T05:18:05;2.63;;;1.50;;
17235;SDS011;8734;59.272;17.780;2023-02-03T05:20:33;4.23;;;1.70;;
17235;SDS011;8734;59.272;17.780;2023-02-03T05:23:02;5.30;;;2.33;;
17235;SDS011;8734;59.272;17.780;2023-02-03T05:25:30;9.80;;;2.03;;
17235;SDS011;8734;59.272;17.780;2023-02-03T05:27:59;3.07;;;1.80;;
17235;SDS011;8734;59.272;17.780;2023-02-03T05:30:28;2.37;;;1.83;;
17235;SDS011;8734;59.272;17.780;2023-02-03T05:32:57;3.80;;;1.90;;
17235;SDS011;8734;59.272;17.780;2023-02-03T05:35:25;6.00;;;2.07;;
17235;SDS011;8734;59.272;17.780;2023-02-03T05:37:54;5.87;;;2.40;;
17235;SDS011;8734;59.272;17.780;2023-02-03T05:40:22;5.83;;;2.27;;
17235;SDS011;8734;59.272;17.780;2023-02-03T05:43:08;4.37;;;1.57;;
17235;SDS011;8734;59.272;17.780;2023-02-03T05:45:38;5.80;;;1.80;;
17235;SDS011;8734;59.272;17.780;2023-02-03T05:48:06;3.33;;;1.80;;
17235;SDS011;8734;59.272;17.780;2023-02-03T05:50:35;6.90;;;2.07;;
17235;SDS011;8734;59.272;17.780;2023-02-03T05:53:04;2.57;;;1.30;;
17235;SDS011;8734;59.272;17.780;2023-02-03T05:55:33;4.40;;;1.77;;
17235;SDS011;8734;59.272;17.780;2023-02-03T05:58:02;1.90;;;1.37;;
17235;SDS011;8734;59.272;17.780;2023-02-03T06:00:30;5.07;;;2.30;;
17235;SDS011;8734;59.272;17.780;2023-02-03T06:03:01;3.10;;;1.60;;
17235;SDS011;8734;59.272;17.780;2023-02-03T06:05:31;3.63;;;1.90;;
17235;SDS011;8734;59.272;17.780;2023-02-03T06:08:03;4.20;;;1.43;;
17235;SDS011;8734;59.272;17.780;2023-02-03T06:10:31;9.50;;;1.90;;
17235;SDS011;8734;59.272;17.780;2023-02-03T06:13:06;3.70;;;2.03;;
17235;SDS011;8734;59.272;17.780;2023-02-03T06:15:37;11.33;;;1.80;;
17235;SDS011;8734;59.272;17.780;2023-02-03T06:18:07;5.73;;;1.93;;
17235;SDS011;8734;59.272;17.780;2023-02-03T06:20:35;6.90;;;1.97;;
17235;SDS011;8734;59.272;17.780;2023-02-03T06:23:04;23.53;;;1.90;;
17235;SDS011;8734;59.272;17.780;2023-02-03T06:25:32;4.50;;;1.37;;
17235;SDS011;8734;59.272;17.780;2023-02-03T06:28:00;4.00;;;1.80;;
17235;SDS011;8734;59.272;17.780;2023-02-03T06:30:29;5.50;;;1.90;;
17235;SDS011;8734;59.272;17.780;2023-02-03T06:32:57;3.70;;;1.77;;
17235;SDS011;8734;59.272;17.780;2023-02-03T06:35:27;8.00;;;2.10;;
17235;SDS011;8734;59.272;17.780;2023-02-03T06:37:56;6.47;;;1.97;;
17235;SDS011;8734;59.272;17.780;2023-02-03T06:40:24;8.37;;;2.00;;
17235;SDS011;8734;59.272;17.780;2023-02-03T06:42:53;3.87;;;1.83;;
17235;SDS011;8734;59.272;17.780;2023-02-03T06:45:21;3.60;;;1.70;;
17235;SDS011;8734;59.272;17.780;2023-02-03T06:47:50;6.20;;;2.10;;
17235;SDS011;8734;59.272;17.780;2023-02-03T06:50:18;8.63;;;2.33;;
17235;SDS011;8734;59.272;17.780;2023-02-03T06:52:49;3.37;;;1.53;;
17235;SDS011;8734;59.272;17.780;2023-02-03T06:55:17;4.00;;;2.20;;
17235;SDS011;8734;59.272;17.780;2023-02-03T06:57:46;4.77;;;1.93;;
17235;SDS011;8734;59.272;17.780;2023-02-03T07:00:16;3.37;;;1.90;;
17235;SDS011;8734;59.272;17.780;2023-02-03T07:02:45;5.13;;;1.97;;
17235;SDS011;8734;59.272;17.780;2023-02-03T07:05:20;11.77;;;2.33;;
17235;SDS011;8734;59.272;17.780;2023-02-03T07:07:49;4.47;;;2.00;;
17235;SDS011;8734;59.272;17.780;2023-02-03T07:10:18;5.40;;;2.00;;
17235;SDS011;8734;59.272;17.780;2023-02-03T07:12:46;3.60;;;2.07;;
17235;SDS011;8734;59.272;17.780;2023-02-03T07:15:16;3.43;;;1.47;;
17235;SDS011;8734;59.272;17.780;2023-02-03T07:17:45;7.77;;;1.97;;
17235;SDS011;8734;59.272;17.780;2023-02-03T07:20:21;5.07;;;1.97;;
17235;SDS011;8734;59.272;17.780;2023-02-03T07:22:52;4.13;;;1.70;;
17235;SDS011;8734;59.272;17.780;2023-02-03T07:25:21;6.00;;;2.33;;
17235;SDS011;8734;59.272;17.780;2023-02-03T07:27:50;3.70;;;1.60;;
17235;SDS011;8734;59.272;17.780;2023-02-03T07:30:19;5.63;;;1.93;;
17235;SDS011;8734;59.272;17.780;2023-02-03T07:32:48;6.27;;;2.37;;
17235;SDS011;8734;59.272;17.780;2023-02-03T07:35:17;7.97;;;1.97;;
17235;SDS011;8734;59.272;17.780;2023-02-03T07:37:46;9.10;;;2.17;;
17235;SDS011;8734;59.272;17.780;2023-02-03T07:40:16;4.80;;;2.10;;
17235;SDS011;8734;59.272;17.780;2023-02-03T07:42:45;5.23;;;1.97;;
17235;SDS011;8734;59.272;17.780;2023-02-03T07:45:16;4.87;;;1.90;;
17235;SDS011;8734;59.272;17.780;2023-02-03T07:47:44;8.17;;;3.83;;
17235;SDS011;8734;59.272;17.780;2023-02-03T07:50:13;6.33;;;3.03;;
17235;SDS011;8734;59.272;17.780;2023-02-03T07:52:41;5.27;;;2.70;;
17235;SDS011;8734;59.272;17.780;2023-02-03T07:55:09;7.33;;;2.47;;
17235;SDS011;8734;59.272;17.780;2023-02-03T07:57:39;10.43;;;3.40;;
17235;SDS011;8734;59.272;17.780;2023-02-03T08:00:10;18.70;;;5.33;;
17235;SDS011;8734;59.272;17.780;2023-02-03T08:02:40;16.17;;;5.37;;
17235;SDS011;8734;59.272;17.780;2023-02-03T08:05:09;10.20;;;3.93;;
17235;SDS011;8734;59.272;17.780;2023-02-03T08:07:38;12.73;;;4.30;;
17235;SDS011;8734;59.272;17.780;2023-02-03T08:10:07;18.60;;;5.10;;
17235;SDS011;8734;59.272;17.780;2023-02-03T08:12:35;12.33;;;5.10;;
17235;SDS011;8734;59.272;17.780;2023-02-03T08:15:06;12.33;;;3.80;;
17235;SDS011;8734;59.272;17.780;2023-02-03T08:17:35;11.17;;;3.77;;
17235;SDS011;8734;59.272;17.780;2023-02-03T08:20:05;10.73;;;4.13;;
17235;SDS011;8734;59.272;17.780;2023-02-03T08:22:34;13.47;;;4.87;;
17235;SDS011;8734;59.272;17.780;2023-02-03T08:25:03;6.20;;;3.47;;
17235;SDS011;8734;59.272;17.780;2023-02-03T08:27:33;17.87;;;4.13;;
17235;SDS011;8734;59.272;17.780;2023-02-03T08:30:01;11.33;;;3.90;;
17235;SDS011;8734;59.272;17.780;2023-02-03T08:32:31;11.03;;;3.70;;
17235;SDS011;8734;59.272;17.780;2023-02-03T08:35:00;8.07;;;3.37;;
17235;SDS011;8734;59.272;17.780;2023-02-03T08:37:29;4.13;;;2.77;;
17235;SDS011;8734;59.272;17.780;2023-02-03T08:39:58;9.03;;;3.77;;
17235;SDS011;8734;59.272;17.780;2023-02-03T08:42:26;8.43;;;3.83;;
17235;SDS011;8734;59.272;17.780;2023-02-03T08:44:54;8.57;;;2.87;;
17235;SDS011;8734;59.272;17.780;2023-02-03T08:47:23;8.47;;;3.10;;
17235;SDS011;8734;59.272;17.780;2023-02-03T08:49:54;8.73;;;3.00;;
17235;SDS011;8734;59.272;17.780;2023-02-03T08:52:22;6.10;;;3.27;;
17235;SDS011;8734;59.272;17.780;2023-02-03T08:54:51;11.47;;;3.63;;
17235;SDS011;8734;59.272;17.780;2023-02-03T08:57:19;6.30;;;2.97;;
17235;SDS011;8734;59.272;17.780;2023-02-03T08:59:47;12.63;;;3.17;;
17235;SDS011;8734;59.272;17.780;2023-02-03T09:02:17;9.03;;;3.37;;
17235;SDS011;8734;59.272;17.780;2023-02-03T09:04:46;6.90;;;3.40;;
17235;SDS011;8734;59.272;17.780;2023-02-03T09:07:17;7.57;;;3.33;;
17235;SDS011;8734;59.272;17.780;2023-02-03T09:09:45;12.07;;;4.00;;
17235;SDS011;8734;59.272;17.780;2023-02-03T09:12:13;8.17;;;3.80;;
17235;SDS011;8734;59.272;17.780;2023-02-03T09:14:42;11.33;;;4.43;;
17235;SDS011;8734;59.272;17.780;2023-02-03T09:17:11;13.87;;;4.03;;
17235;SDS011;8734;59.272;17.780;2023-02-03T09:19:39;11.60;;;4.43;;
17235;SDS011;8734;59.272;17.780;2023-02-03T09:22:07;10.50;;;4.73;;
17235;SDS011;8734;59.272;17.780;2023-02-03T09:24:37;12.70;;;6.17;;
17235;SDS011;8734;59.272;17.780;2023-02-03T09:27:05;19.93;;;6.57;;
17235;SDS011;8734;59.272;17.780;2023-02-03T09:29:34;12.60;;;6.47;;
17235;SDS011;8734;59.272;17.780;2023-02-03T09:32:02;20.97;;;7.33;;
17235;SDS011;8734;59.272;17.780;2023-02-03T09:34:34;12.30;;;5.57;;
17235;SDS011;8734;59.272;17.780;2023-02-03T09:37:02;9.47;;;4.17;;
17235;SDS011;8734;59.272;17.780;2023-02-03T09:39:31;8.77;;;3.43;;
17235;SDS011;8734;59.272;17.780;2023-02-03T09:42:09;6.97;;;3.07;;
17235;SDS011;8734;59.272;17.780;2023-02-03T09:44:53;7.53;;;3.07;;
17235;SDS011;8734;59.272;17.780;2023-02-03T09:47:31;7.67;;;3.20;;
17235;SDS011;8734;59.272;17.780;2023-02-03T09:50:03;11.67;;;3.60;;
17235;SDS011;8734;59.272;17.780;2023-02-03T09:52:34;13.50;;;3.47;;
17235;SDS011;8734;59.272;17.780;2023-02-03T09:55:06;14.60;;;3.47;;
17235;SDS011;8734;59.272;17.780;2023-02-03T09:57:51;9.87;;;3.60;;
17235;SDS011;8734;59.272;17.780;2023-02-03T10:00:25;8.70;;;3.60;;
17235;SDS011;8734;59.272;17.780;2023-02-03T10:02:56;8.67;;;3.80;;
17235;SDS011;8734;59.272;17.780;2023-02-03T10:05:31;11.97;;;3.93;;
17235;SDS011;8734;59.272;17.780;2023-02-03T10:08:12;6.07;;;3.53;;
17235;SDS011;8734;59.272;17.780;2023-02-03T10:10:51;9.80;;;4.20;;
17235;SDS011;8734;59.272;17.780;2023-02-03T10:13:40;7.80;;;3.80;;
17235;SDS011;8734;59.272;17.780;2023-02-03T10:16:20;7.27;;;3.97;;
17235;SDS011;8734;59.272;17.780;2023-02-03T10:19:15;9.23;;;3.63;;
17235;SDS011;8734;59.272;17.780;2023-02-03T10:21:49;7.93;;;3.40;;
17235;SDS011;8734;59.272;17.780;2023-02-03T10:24:22;8.43;;;3.50;;
17235;SDS011;8734;59.272;17.780;2023-02-03T10:26:53;18.00;;;4.23;;
17235;SDS011;8734;59.272;17.780;2023-02-03T10:29:25;12.67;;;4.40;;
17235;SDS011;8734;59.272;17.780;2023-02-03T10:31:58;10.23;;;4.17;;
17235;SDS011;8734;59.272;17.780;2023-02-03T10:34:27;15.37;;;4.27;;
17235;SDS011;8734;59.272;17.780;2023-02-03T10:36:56;9.97;;;3.60;;
17235;SDS011;8734;59.272;17.780;2023-02-03T10:39:28;8.50;;;3.67;;
17235;SDS011;8734;59.272;17.780;2023-02-03T10:41:59;8.83;;;3.37;;
17235;SDS011;8734;59.272;17.780;2023-02-03T10:44:32;5.37;;;2.63;;
17235;SDS011;8734;59.272;17.780;2023-02-03T10:50:02;6.33;;;2.80;;
17235;SDS011;8734;59.272;17.780;2023-02-03T10:52:33;5.20;;;2.90;;
17235;SDS011;8734;59.272;17.780;2023-02-03T10:55:04;6.13;;;2.50;;
17235;SDS011;8734;59.272;17.780;2023-02-03T10:57:34;8.77;;;2.43;;
17235;SDS011;8734;59.272;17.780;2023-02-03T11:00:07;6.03;;;2.97;;
17235;SDS011;8734;59.272;17.780;2023-02-03T11:02:53;9.40;;;3.60;;
17235;SDS011;8734;59.272;17.780;2023-02-03T11:05:23;7.20;;;3.40;;
17235;SDS011;8734;59.272;17.780;2023-02-03T11:07:52;5.87;;;2.90;;
17235;SDS011;8734;59.272;17.780;2023-02-03T11:10:25;4.37;;;2.70;;
17235;SDS011;8734;59.272;17.780;2023-02-03T11:15:56;7.87;;;3.07;;
17235;SDS011;8734;59.272;17.780;2023-02-03T11:18:37;7.80;;;3.47;;
17235;SDS011;8734;59.272;17.780;2023-02-03T11:21:14;10.37;;;3.73;;
17235;SDS011;8734;59.272;17.780;2023-02-03T11:23:46;6.00;;;2.93;;
17235;SDS011;8734;59.272;17.780;2023-02-03T11:26:18;6.00;;;2.77;;
17235;SDS011;8734;59.272;17.780;2023-02-03T11:28:49;4.10;;;2.43;;
17235;SDS011;8734;59.272;17.780;2023-02-03T11:31:23;8.67;;;3.23;;
17235;SDS011;8734;59.272;17.780;2023-02-03T11:33:53;7.17;;;3.03;;
17235;SDS011;8734;59.272;17.780;2023-02-03T11:36:25;8.00;;;2.57;;
17235;SDS011;8734;59.272;17.780;2023-02-03T11:39:07;7.40;;;2.43;;
17235;SDS011;8734;59.272;17.780;2023-02-03T11:41:47;6.67;;;3.00;;
17235;SDS011;8734;59.272;17.780;2023-02-03T11:44:17;8.23;;;2.73;;
17235;SDS011;8734;59.272;17.780;2023-02-03T11:46:49;12.30;;;2.77;;
17235;SDS011;8734;59.272;17.780;2023-02-03T11:52:21;5.90;;;2.57;;
17235;SDS011;8734;59.272;17.780;2023-02-03T11:55:06;9.00;;;2.80;;
17235;SDS011;8734;59.272;17.780;2023-02-03T11:57:43;7.63;;;2.40;;
17235;SDS011;8734;59.272;17.780;2023-02-03T12:00:19;7.83;;;2.20;;
17235;SDS011;8734;59.272;17.780;2023-02-03T12:06:05;5.43;;;1.93;;
17235;SDS011;8734;59.272;17.780;2023-02-03T12:08:50;5.93;;;2.87;;
17235;SDS011;8734;59.272;17.780;2023-02-03T12:11:31;4.90;;;2.40;;
17235;SDS011;8734;59.272;17.780;2023-02-03T12:14:13;5.47;;;2.10;;
17235;SDS011;8734;59.272;17.780;2023-02-03T12:19:55;4.30;;;2.10;;
17235;SDS011;8734;59.272;17.780;2023-02-03T12:22:45;5.40;;;1.73;;
17235;SDS011;8734;59.272;17.780;2023-02-03T12:25:25;3.33;;;2.10;;
17235;SDS011;8734;59.272;17.780;2023-02-03T12:28:02;5.50;;;2.03;;
17235;SDS011;8734;59.272;17.780;2023-02-03T12:30:57;7.57;;;2.63;;
17235;SDS011;8734;59.272;17.780;2023-02-03T12:33:31;6.23;;;2.07;;
17235;SDS011;8734;59.272;17.780;2023-02-03T12:36:08;5.27;;;1.93;;
17235;SDS011;8734;59.272;17.780;2023-02-03T12:38:40;12.67;;;2.07;;
17235;SDS011;8734;59.272;17.780;2023-02-03T12:41:12;5.03;;;1.63;;
17235;SDS011;8734;59.272;17.780;2023-02-03T12:43:45;2.77;;;1.67;;
17235;SDS011;8734;59.272;17.780;2023-02-03T12:46:17;5.00;;;1.47;;
17235;SDS011;8734;59.272;17.780;2023-02-03T12:48:50;5.77;;;1.90;;
17235;SDS011;8734;59.272;17.780;2023-02-03T12:51:27;2.97;;;1.50;;
17235;SDS011;8734;59.272;17.780;2023-02-03T12:54:00;2.70;;;1.83;;
17235;SDS011;8734;59.272;17.780;2023-02-03T12:56:36;7.07;;;1.50;;
17235;SDS011;8734;59.272;17.780;2023-02-03T12:59:08;2.73;;;1.30;;
17235;SDS011;8734;59.272;17.780;2023-02-03T13:01:42;2.50;;;1.10;;
17235;SDS011;8734;59.272;17.780;2023-02-03T13:04:17;2.60;;;1.10;;
17235;SDS011;8734;59.272;17.780;2023-02-03T13:06:55;3.37;;;1.10;;
17235;SDS011;8734;59.272;17.780;2023-02-03T13:09:32;2.53;;;1.20;;
17235;SDS011;8734;59.272;17.780;2023-02-03T13:12:05;4.23;;;1.30;;
17235;SDS011;8734;59.272;17.780;2023-02-03T13:14:38;1.93;;;1.13;;
17235;SDS011;8734;59.272;17.780;2023-02-03T13:17:12;3.87;;;1.33;;
17235;SDS011;8734;59.272;17.780;2023-02-03T13:19:47;1.33;;;1.10;;
17235;SDS011;8734;59.272;17.780;2023-02-03T13:22:20;5.63;;;1.33;;
17235;SDS011;8734;59.272;17.780;2023-02-03T13:24:52;2.33;;;1.30;;
17235;SDS011;8734;59.272;17.780;2023-02-03T13:27:29;3.47;;;0.90;;
17235;SDS011;8734;59.272;17.780;2023-02-03T13:30:16;2.73;;;1.23;;
17235;SDS011;8734;59.272;17.780;2023-02-03T13:33:09;2.13;;;1.10;;
17235;SDS011;8734;59.272;17.780;2023-02-03T13:36:00;4.13;;;1.50;;
17235;SDS011;8734;59.272;17.780;2023-02-03T13:38:46;2.77;;;1.20;;
17235;SDS011;8734;59.272;17.780;2023-02-03T13:41:34;2.97;;;1.37;;
17235;SDS011;8734;59.272;17.780;2023-02-03T13:44:08;1.97;;;1.17;;
17235;SDS011;8734;59.272;17.780;2023-02-03T13:46:39;1.63;;;1.03;;
17235;SDS011;8734;59.272;17.780;2023-02-03T13:49:08;1.43;;;1.10;;
17235;SDS011;8734;59.272;17.780;2023-02-03T13:51:45;1.40;;;1.00;;
17235;SDS011;8734;59.272;17.780;2023-02-03T13:54:15;3.00;;;1.27;;
17235;SDS011;8734;59.272;17.780;2023-02-03T13:56:52;1.83;;;1.10;;
17235;SDS011;8734;59.272;17.780;2023-02-03T13:59:29;7.70;;;1.47;;
17235;SDS011;8734;59.272;17.780;2023-02-03T14:20:42;2.97;;;1.30;;
17235;SDS011;8734;59.272;17.780;2023-02-03T14:23:18;3.00;;;1.00;;
17235;SDS011;8734;59.272;17.780;2023-02-03T14:26:03;3.20;;;1.03;;
17235;SDS011;8734;59.272;17.780;2023-02-03T14:28:40;2.97;;;1.30;;
17235;SDS011;8734;59.272;17.780;2023-02-03T14:31:13;2.30;;;1.30;;
17235;SDS011;8734;59.272;17.780;2023-02-03T14:33:52;5.70;;;1.27;;
17235;SDS011;8734;59.272;17.780;2023-02-03T14:36:33;3.87;;;1.50;;
17235;SDS011;8734;59.272;17.780;2023-02-03T14:42:08;5.33;;;1.27;;
17235;SDS011;8734;59.272;17.780;2023-02-03T14:44:47;1.30;;;1.20;;
17235;SDS011;8734;59.272;17.780;2023-02-03T14:47:32;1.47;;;1.37;;
17235;SDS011;8734;59.272;17.780;2023-02-03T14:50:16;2.07;;;1.30;;
17235;SDS011;8734;59.272;17.780;2023-02-03T14:55:57;4.67;;;1.30;;
17235;SDS011;8734;59.272;17.780;2023-02-03T14:58:35;6.43;;;2.10;;
17235;SDS011;8734;59.272;17.780;2023-02-03T15:01:15;4.63;;;1.77;;
17235;SDS011;8734;59.272;17.780;2023-02-03T15:06:49;5.77;;;1.63;;
17235;SDS011;8734;59.272;17.780;2023-02-03T15:09:26;5.43;;;2.13;;
17235;SDS011;8734;59.272;17.780;2023-02-03T15:11:58;12.00;;;2.00;;
17235;SDS011;8734;59.272;17.780;2023-02-03T15:14:26;8.37;;;1.90;;
17235;SDS011;8734;59.272;17.780;2023-02-03T15:16:58;4.90;;;1.90;;
17235;SDS011;8734;59.272;17.780;2023-02-03T15:19:31;3.77;;;1.73;;
17235;SDS011;8734;59.272;17.780;2023-02-03T15:22:01;7.47;;;2.30;;
17235;SDS011;8734;59.272;17.780;2023-02-03T15:24:44;16.73;;;2.13;;
17235;SDS011;8734;59.272;17.780;2023-02-03T15:27:19;11.93;;;1.97;;
17235;SDS011;8734;59.272;17.780;2023-02-03T15:29:48;4.00;;;2.07;;
17235;SDS011;8734;59.272;17.780;2023-02-03T15:32:20;5.97;;;2.20;;
17235;SDS011;8734;59.272;17.780;2023-02-03T15:34:54;7.23;;;2.00;;
17235;SDS011;8734;59.272;17.780;2023-02-03T15:37:26;3.07;;;2.07;;
17235;SDS011;8734;59.272;17.780;2023-02-03T15:39:59;5.97;;;2.07;;
17235;SDS011;8734;59.272;17.780;2023-02-03T15:42:30;4.63;;;2.13;;
17235;SDS011;8734;59.272;17.780;2023-02-03T15:45:03;8.63;;;2.53;;
17235;SDS011;8734;59.272;17.780;2023-02-03T15:47:36;6.33;;;2.10;;
17235;SDS011;8734;59.272;17.780;2023-02-03T15:50:14;5.03;;;2.40;;
17235;SDS011;8734;59.272;17.780;2023-02-03T15:52:57;6.77;;;2.07;;
17235;SDS011;8734;59.272;17.780;2023-02-03T15:55:30;7.13;;;3.00;;
17235;SDS011;8734;59.272;17.780;2023-02-03T15:58:02;8.50;;;2.53;;
17235;SDS011;8734;59.272;17.780;2023-02-03T16:00:33;14.30;;;2.97;;